Terminal Aerodrome Forecast
Issued by NWS

Home | Current Version | Previous Version | Text Only | Print | Product List | Glossary On
Versions: 1 2 3 4 5 6 7 8 9 10 11 12 13 14
000
FTUS43 KGRR 282300
TAFMKG
TAF
KMKG 282340Z 2900/2924 10005KT P6SM BKN150
     FM291000 13009KT 6SM -SHRA BR OVC070
     FM291800 16010KT P6SM SCT035 BKN150=

USA.gov is the U.S. government's official web portal to all federal, state and local government web resources and services.